Time;durP1;ratioP1;P1;durP2;ratioP2;P2;SDS_P1;SDS_P2;PMS_P1;PMS_P2;Temp;Humidity;BMP_temperature;BMP_pressure;BME280_temperature;BME280_humidity;BME280_pressure;Samples;Min_cycle;Max_cycle;Signal;HPM_P1;HPM_P2
2022/06/15 00:02:00;;;;;;;;;;;21.90;55.50;;;;;;498970;238;1511;-41
2022/06/15 00:04:03;;;;;;;;;;;21.80;55.50;;;;;;499392;238;2109;-42
2022/06/15 00:06:03;;;;;;;;;;;21.90;55.50;;;;;;499276;238;2408;-42
2022/06/15 00:08:05;;;;;;;;;;;21.90;55.40;;;;;;499368;238;1502;-41
2022/06/15 00:10:06;;;;;;;;;;;21.90;55.40;;;;;;499081;238;1327;-42
2022/06/15 00:12:08;;;;;;;;;;;21.90;55.50;;;;;;498886;238;1182;-41
2022/06/15 00:14:09;;;;;;;;;;;21.90;55.40;;;;;;499032;238;2083;-41
2022/06/15 00:16:10;;;;;;;;;;;21.90;55.40;;;;;;499063;238;1230;-41
2022/06/15 00:18:11;;;;;;;;;;;21.90;55.40;;;;;;499318;238;1199;-41
2022/06/15 00:20:13;;;;;;;;;;;21.80;55.40;;;;;;498861;238;1282;-40
2022/06/15 00:22:14;;;;;;;;;;;21.90;55.50;;;;;;499108;238;1237;-41
2022/06/15 00:24:15;;;;;;;;;;;21.80;55.60;;;;;;499231;238;2114;-41
2022/06/15 00:26:17;;;;;;;;;;;21.80;55.70;;;;;;499090;238;1264;-40
2022/06/15 00:28:18;;;;;;;;;;;21.80;55.70;;;;;;498998;238;1201;-41
2022/06/15 00:30:21;;;;;;;;;;;21.80;55.60;;;;;;499345;238;1350;-41
2022/06/15 00:32:21;;;;;;;;;;;21.80;55.60;;;;;;499268;238;2051;-41
2022/06/15 00:34:22;;;;;;;;;;;21.80;55.70;;;;;;499327;238;1309;-41
2022/06/15 00:36:23;;;;;;;;;;;21.80;55.70;;;;;;499242;238;1207;-41
2022/06/15 00:38:25;;;;;;;;;;;21.80;55.80;;;;;;498956;238;1269;-41
2022/06/15 00:40:26;;;;;;;;;;;21.80;55.70;;;;;;499157;238;1489;-42
2022/06/15 00:42:27;;;;;;;;;;;21.80;55.70;;;;;;499368;238;1272;-41
2022/06/15 00:44:29;;;;;;;;;;;21.90;55.50;;;;;;499109;238;2228;-41
2022/06/15 00:46:30;;;;;;;;;;;21.80;55.50;;;;;;499198;238;1200;-42
2022/06/15 00:48:31;;;;;;;;;;;21.80;55.50;;;;;;498895;238;1165;-41
2022/06/15 00:50:34;;;;;;;;;;;21.80;55.60;;;;;;499092;238;1167;-41
2022/06/15 00:52:34;;;;;;;;;;;21.80;55.60;;;;;;498917;238;2224;-41
2022/06/15 00:54:35;;;;;;;;;;;21.90;55.50;;;;;;498869;238;1195;-41
2022/06/15 00:56:37;;;;;;;;;;;21.90;55.40;;;;;;499295;238;1232;-42
2022/06/15 00:58:38;;;;;;;;;;;21.90;55.50;;;;;;499365;238;1204;-41
2022/06/15 01:00:40;;;;;;;;;;;21.90;55.40;;;;;;499201;238;1355;-41
2022/06/15 01:02:41;;;;;;;;;;;21.90;55.50;;;;;;498906;238;1224;-41
2022/06/15 01:04:43;;;;;;;;;;;21.80;55.50;;;;;;498886;238;2113;-41
2022/06/15 01:06:44;;;;;;;;;;;21.80;55.60;;;;;;499106;238;1250;-41
2022/06/15 01:08:45;;;;;;;;;;;21.80;55.60;;;;;;499062;238;1220;-41
2022/06/15 01:10:47;;;;;;;;;;;21.90;55.50;;;;;;499135;238;1205;-41
2022/06/15 01:12:48;;;;;;;;;;;21.90;55.40;;;;;;499121;238;1129;-42
2022/06/15 01:14:49;;;;;;;;;;;21.90;55.50;;;;;;499149;238;1369;-41
2022/06/15 01:16:51;;;;;;;;;;;21.90;55.40;;;;;;498942;238;1237;-41
2022/06/15 01:18:52;;;;;;;;;;;21.90;55.40;;;;;;499242;238;1175;-41
2022/06/15 01:20:53;;;;;;;;;;;21.90;55.50;;;;;;499262;238;1207;-41
2022/06/15 01:22:55;;;;;;;;;;;21.90;55.50;;;;;;498865;238;1133;-41
2022/06/15 01:24:56;;;;;;;;;;;21.80;55.60;;;;;;499101;238;2196;-41
2022/06/15 01:26:58;;;;;;;;;;;21.90;55.60;;;;;;499060;238;1258;-41
2022/06/15 01:28:59;;;;;;;;;;;21.80;55.50;;;;;;499108;238;1293;-40
2022/06/15 01:31:00;;;;;;;;;;;21.80;55.70;;;;;;499317;238;1219;-41
2022/06/15 01:33:02;;;;;;;;;;;21.80;55.70;;;;;;499330;238;1208;-41
2022/06/15 01:35:03;;;;;;;;;;;21.80;55.70;;;;;;498944;238;1215;-41
2022/06/15 01:37:04;;;;;;;;;;;21.80;55.60;;;;;;499392;238;1197;-41
2022/06/15 01:39:06;;;;;;;;;;;21.80;55.60;;;;;;499352;238;1315;-41
2022/06/15 01:41:07;;;;;;;;;;;21.90;55.50;;;;;;499109;238;1302;-41
2022/06/15 01:43:08;;;;;;;;;;;21.80;55.40;;;;;;499131;238;1176;-41
2022/06/15 01:45:10;;;;;;;;;;;21.80;55.60;;;;;;499140;238;2126;-40
2022/06/15 01:47:11;;;;;;;;;;;21.80;55.50;;;;;;498842;238;1249;-42
2022/06/15 01:49:14;;;;;;;;;;;21.80;55.50;;;;;;498895;238;1247;-41
2022/06/15 01:51:14;;;;;;;;;;;21.80;55.70;;;;;;499235;238;2133;-41
2022/06/15 01:53:15;;;;;;;;;;;21.80;55.70;;;;;;498884;238;1180;-41
2022/06/15 01:55:16;;;;;;;;;;;21.80;55.70;;;;;;498886;238;1047;-41
2022/06/15 01:57:18;;;;;;;;;;;21.90;55.60;;;;;;498885;238;1184;-41
2022/06/15 01:59:19;;;;;;;;;;;21.80;55.70;;;;;;499420;238;1312;-42
2022/06/15 02:01:20;;;;;;;;;;;21.80;55.50;;;;;;499375;238;1052;-41
2022/06/15 02:03:22;;;;;;;;;;;21.80;55.50;;;;;;498924;238;1066;-41
2022/06/15 02:05:23;;;;;;;;;;;21.90;55.50;;;;;;499247;238;2129;-41
2022/06/15 02:07:24;;;;;;;;;;;21.90;55.50;;;;;;499084;238;1123;-40
2022/06/15 02:09:26;;;;;;;;;;;21.90;55.60;;;;;;499409;238;979;-42
2022/06/15 02:11:27;;;;;;;;;;;21.80;55.60;;;;;;499371;238;1191;-41
2022/06/15 02:13:28;;;;;;;;;;;21.90;55.50;;;;;;499407;238;1201;-41
2022/06/15 02:15:30;;;;;;;;;;;21.90;55.50;;;;;;498956;238;1173;-41
2022/06/15 02:17:31;;;;;;;;;;;21.90;55.50;;;;;;498929;238;1195;-41
2022/06/15 02:19:33;;;;;;;;;;;21.80;55.50;;;;;;499438;238;1025;-41
2022/06/15 02:21:34;;;;;;;;;;;21.80;55.50;;;;;;498882;238;1233;-40
2022/06/15 02:23:35;;;;;;;;;;;21.80;55.50;;;;;;499049;238;1498;-41
2022/06/15 02:25:37;;;;;;;;;;;21.80;55.50;;;;;;499171;238;2133;-41
2022/06/15 02:27:38;;;;;;;;;;;21.80;55.50;;;;;;498967;238;1278;-41
2022/06/15 02:29:39;;;;;;;;;;;21.80;55.60;;;;;;499335;238;1293;-41
2022/06/15 02:31:41;;;;;;;;;;;21.80;55.60;;;;;;499198;238;1090;-41
2022/06/15 02:33:42;;;;;;;;;;;21.80;55.50;;;;;;498927;238;1371;-41
2022/06/15 02:35:44;;;;;;;;;;;21.90;55.60;;;;;;499011;238;1156;-41
2022/06/15 02:37:45;;;;;;;;;;;21.80;55.60;;;;;;499237;238;1239;-41
2022/06/15 02:39:46;;;;;;;;;;;21.80;55.60;;;;;;499134;238;1203;-41
2022/06/15 02:41:47;;;;;;;;;;;21.90;55.60;;;;;;498786;238;1290;-41
2022/06/15 02:43:49;;;;;;;;;;;21.90;55.60;;;;;;498965;238;1150;-40
2022/06/15 02:45:50;;;;;;;;;;;21.80;55.70;;;;;;499078;238;2105;-41
2022/06/15 02:47:51;;;;;;;;;;;21.90;55.50;;;;;;499105;238;1204;-42
2022/06/15 02:49:53;;;;;;;;;;;21.90;55.50;;;;;;499361;238;1196;-41
2022/06/15 02:51:54;;;;;;;;;;;21.90;55.50;;;;;;499316;238;1159;-41
2022/06/15 02:53:55;;;;;;;;;;;21.90;55.50;;;;;;498893;238;1170;-41
2022/06/15 02:55:57;;;;;;;;;;;21.90;55.50;;;;;;498883;238;1268;-41
2022/06/15 02:57:58;;;;;;;;;;;21.90;55.60;;;;;;498933;238;1265;-40
2022/06/15 02:59:59;;;;;;;;;;;21.80;55.60;;;;;;498911;238;1308;-41
2022/06/15 03:02:01;;;;;;;;;;;21.80;55.60;;;;;;499337;238;1229;-41
2022/06/15 03:04:02;;;;;;;;;;;21.80;55.60;;;;;;499360;238;1040;-41
2022/06/15 03:06:03;;;;;;;;;;;21.90;55.60;;;;;;499360;238;2176;-41
2022/06/15 03:08:05;;;;;;;;;;;21.90;55.50;;;;;;499393;238;1041;-41
2022/06/15 03:10:06;;;;;;;;;;;21.90;55.60;;;;;;499383;238;1089;-41
2022/06/15 03:12:07;;;;;;;;;;;21.90;55.60;;;;;;499267;238;1183;-40
2022/06/15 03:14:09;;;;;;;;;;;21.90;55.50;;;;;;499252;238;1156;-41
2022/06/15 03:16:10;;;;;;;;;;;21.90;55.50;;;;;;499151;238;1174;-41
2022/06/15 03:18:11;;;;;;;;;;;21.90;55.40;;;;;;498908;238;1136;-41
2022/06/15 03:20:12;;;;;;;;;;;21.90;55.50;;;;;;499173;238;1614;-40
2022/06/15 03:22:14;;;;;;;;;;;21.90;55.50;;;;;;499363;238;1212;-42
2022/06/15 03:24:15;;;;;;;;;;;21.80;55.50;;;;;;498853;238;1616;-41
2022/06/15 03:26:17;;;;;;;;;;;21.90;55.60;;;;;;498816;238;2175;-41
2022/06/15 03:28:18;;;;;;;;;;;21.90;55.50;;;;;;499283;238;1263;-40
2022/06/15 03:30:19;;;;;;;;;;;21.90;55.50;;;;;;498840;238;1666;-41
2022/06/15 03:32:20;;;;;;;;;;;21.80;55.50;;;;;;498903;238;1260;-41
2022/06/15 03:34:22;;;;;;;;;;;21.80;55.50;;;;;;499359;238;1204;-41
2022/06/15 03:36:23;;;;;;;;;;;21.80;55.60;;;;;;499006;238;1171;-41
2022/06/15 03:38:24;;;;;;;;;;;21.80;55.80;;;;;;498855;238;1231;-41
2022/06/15 03:40:26;;;;;;;;;;;21.80;55.70;;;;;;499190;238;1195;-41
2022/06/15 03:42:27;;;;;;;;;;;21.80;55.70;;;;;;499128;238;1165;-41
2022/06/15 03:44:28;;;;;;;;;;;21.80;55.80;;;;;;499345;238;1166;-42
2022/06/15 03:46:30;;;;;;;;;;;21.80;55.70;;;;;;498894;238;1151;-42
2022/06/15 03:48:31;;;;;;;;;;;21.80;55.70;;;;;;499324;238;1300;-41
2022/06/15 03:50:32;;;;;;;;;;;21.80;55.70;;;;;;498858;238;1224;-41
2022/06/15 03:52:34;;;;;;;;;;;21.80;55.60;;;;;;498893;238;1176;-41
2022/06/15 03:54:36;;;;;;;;;;;21.80;55.60;;;;;;499371;238;1290;-41
2022/06/15 03:56:37;;;;;;;;;;;21.80;55.70;;;;;;499223;238;1192;-41
2022/06/15 03:58:38;;;;;;;;;;;21.80;55.70;;;;;;499334;238;1174;-41
2022/06/15 04:00:40;;;;;;;;;;;21.80;55.80;;;;;;498899;238;1289;-42
2022/06/15 04:02:41;;;;;;;;;;;21.80;55.80;;;;;;498863;238;1284;-41
2022/06/15 04:04:42;;;;;;;;;;;21.80;55.90;;;;;;499180;238;2117;-41
2022/06/15 04:06:44;;;;;;;;;;;21.80;55.80;;;;;;499316;238;1085;-41
2022/06/15 04:08:46;;;;;;;;;;;21.80;55.80;;;;;;498999;238;1279;-40
2022/06/15 04:10:47;;;;;;;;;;;21.80;55.80;;;;;;499106;238;1534;-41
2022/06/15 04:12:48;;;;;;;;;;;21.70;55.80;;;;;;499338;238;1267;-42
2022/06/15 04:14:50;;;;;;;;;;;21.70;55.80;;;;;;499042;238;1217;-41
2022/06/15 04:16:54;;;;;;;;;;;21.80;55.80;;;;;;498971;238;1252;-41
2022/06/15 04:18:55;;;;;;;;;;;21.80;55.70;;;;;;498828;238;1214;-41
2022/06/15 04:20:56;;;;;;;;;;;21.80;55.80;;;;;;498927;238;1230;-41
2022/06/15 04:22:58;;;;;;;;;;;21.80;55.80;;;;;;499292;238;1229;-41
2022/06/15 04:24:59;;;;;;;;;;;21.70;55.80;;;;;;499311;238;2121;-41
2022/06/15 04:27:00;;;;;;;;;;;21.80;55.80;;;;;;498966;238;1216;-42
2022/06/15 04:29:02;;;;;;;;;;;21.80;55.70;;;;;;499252;238;1125;-42
2022/06/15 04:31:03;;;;;;;;;;;21.80;55.80;;;;;;499238;238;1166;-41
2022/06/15 04:33:04;;;;;;;;;;;21.80;55.80;;;;;;498887;238;1384;-41
2022/06/15 04:35:06;;;;;;;;;;;21.80;55.80;;;;;;499186;238;1329;-40
2022/06/15 04:37:07;;;;;;;;;;;21.70;55.80;;;;;;498751;238;1250;-41
2022/06/15 04:39:09;;;;;;;;;;;21.70;55.80;;;;;;499117;238;1090;-41
2022/06/15 04:41:10;;;;;;;;;;;21.80;55.70;;;;;;499160;238;1188;-41
2022/06/15 04:43:11;;;;;;;;;;;21.80;55.80;;;;;;498711;238;1461;-40
2022/06/15 04:45:13;;;;;;;;;;;21.80;55.70;;;;;;499023;238;2192;-41
2022/06/15 04:47:14;;;;;;;;;;;21.80;55.60;;;;;;498698;238;1285;-41
2022/06/15 04:49:16;;;;;;;;;;;21.80;55.70;;;;;;498862;238;1235;-42
2022/06/15 04:51:17;;;;;;;;;;;21.80;55.80;;;;;;498867;238;1178;-41
2022/06/15 04:53:19;;;;;;;;;;;21.80;55.80;;;;;;498815;238;1086;-41
2022/06/15 04:55:20;;;;;;;;;;;21.90;55.70;;;;;;498613;238;1068;-41
2022/06/15 04:57:21;;;;;;;;;;;21.80;55.60;;;;;;498740;238;1155;-41
2022/06/15 04:59:23;;;;;;;;;;;21.80;55.60;;;;;;498570;238;1099;-41
2022/06/15 05:01:24;;;;;;;;;;;21.80;55.60;;;;;;498514;238;1746;-42
2022/06/15 05:03:25;;;;;;;;;;;21.80;55.60;;;;;;498581;238;1168;-41
2022/06/15 05:05:27;;;;;;;;;;;21.70;55.80;;;;;;499097;238;2117;-41
2022/06/15 05:07:28;;;;;;;;;;;21.70;55.80;;;;;;499135;238;1298;-41
2022/06/15 05:09:29;;;;;;;;;;;21.80;55.70;;;;;;498858;238;1061;-42
2022/06/15 05:11:31;;;;;;;;;;;21.80;55.70;;;;;;499772;238;1137;-40
2022/06/15 05:13:32;;;;;;;;;;;21.80;55.70;;;;;;499584;238;1136;-41
2022/06/15 05:15:33;;;;;;;;;;;21.70;55.80;;;;;;499691;238;1244;-41
2022/06/15 05:17:34;;;;;;;;;;;21.70;55.90;;;;;;499546;238;1213;-41
2022/06/15 05:19:36;;;;;;;;;;;21.80;55.80;;;;;;499667;238;1213;-42
2022/06/15 05:21:37;;;;;;;;;;;21.80;55.80;;;;;;498926;238;1411;-42
2022/06/15 05:23:38;;;;;;;;;;;21.80;55.80;;;;;;498596;238;1787;-41
2022/06/15 05:25:40;;;;;;;;;;;21.80;55.60;;;;;;498527;238;2129;-41
2022/06/15 05:27:41;;;;;;;;;;;21.80;55.70;;;;;;498800;238;1142;-41
2022/06/15 05:29:42;;;;;;;;;;;21.80;55.70;;;;;;498684;238;1264;-41
2022/06/15 05:31:44;;;;;;;;;;;21.80;55.70;;;;;;498521;238;1128;-41
2022/06/15 05:33:45;;;;;;;;;;;21.80;55.60;;;;;;498556;238;1141;-41
2022/06/15 05:35:46;;;;;;;;;;;21.80;55.80;;;;;;498445;238;1415;-41
2022/06/15 05:37:48;;;;;;;;;;;21.70;55.80;;;;;;498744;238;1163;-41
2022/06/15 05:39:49;;;;;;;;;;;21.80;55.80;;;;;;498506;238;1256;-41
2022/06/15 05:41:50;;;;;;;;;;;21.80;55.80;;;;;;498953;238;1116;-41
2022/06/15 05:43:52;;;;;;;;;;;21.80;55.80;;;;;;498543;238;1161;-42
2022/06/15 05:45:53;;;;;;;;;;;21.80;55.70;;;;;;498452;238;2112;-41
2022/06/15 05:47:54;;;;;;;;;;;21.80;55.70;;;;;;498411;238;1219;-41
2022/06/15 05:49:56;;;;;;;;;;;21.80;55.80;;;;;;498944;238;1287;-41
2022/06/15 05:51:57;;;;;;;;;;;21.80;55.80;;;;;;498639;238;1182;-41
2022/06/15 05:53:59;;;;;;;;;;;21.80;55.80;;;;;;498293;238;1164;-41
2022/06/15 05:56:00;;;;;;;;;;;21.80;55.80;;;;;;498340;238;1355;-41
2022/06/15 05:58:01;;;;;;;;;;;21.80;55.80;;;;;;498493;238;1195;-41
2022/06/15 06:00:05;;;;;;;;;;;21.80;55.80;;;;;;498165;238;1389;-41
2022/06/15 06:02:05;;;;;;;;;;;21.80;55.70;;;;;;499816;238;1172;-40
2022/06/15 06:04:06;;;;;;;;;;;21.80;55.70;;;;;;499469;238;1409;-41
2022/06/15 06:06:07;;;;;;;;;;;21.80;55.70;;;;;;499376;238;2145;-41
2022/06/15 06:08:09;;;;;;;;;;;21.80;55.80;;;;;;498208;238;1180;-40
2022/06/15 06:10:10;;;;;;;;;;;21.80;55.80;;;;;;498243;238;1215;-41
2022/06/15 06:12:11;;;;;;;;;;;21.70;55.90;;;;;;497955;238;1237;-41
2022/06/15 06:14:13;;;;;;;;;;;21.70;55.90;;;;;;498222;238;1244;-41
2022/06/15 06:16:14;;;;;;;;;;;21.70;56.00;;;;;;498053;238;1226;-41
2022/06/15 06:18:16;;;;;;;;;;;21.70;56.00;;;;;;498111;238;1188;-41
2022/06/15 06:20:17;;;;;;;;;;;21.70;55.90;;;;;;498906;238;1026;-41
2022/06/15 06:22:18;;;;;;;;;;;21.70;55.80;;;;;;498297;238;1097;-41
2022/06/15 06:24:19;;;;;;;;;;;21.70;55.80;;;;;;498111;238;1340;-42
2022/06/15 06:26:21;;;;;;;;;;;21.70;55.80;;;;;;498299;238;2199;-42
2022/06/15 06:28:22;;;;;;;;;;;21.80;55.70;;;;;;498350;238;1099;-41
2022/06/15 06:30:23;;;;;;;;;;;21.80;55.70;;;;;;498391;238;1070;-41
2022/06/15 06:32:25;;;;;;;;;;;21.80;55.70;;;;;;498789;238;1041;-41
2022/06/15 06:34:26;;;;;;;;;;;21.70;55.70;;;;;;498374;238;1121;-42
2022/06/15 06:36:27;;;;;;;;;;;21.70;55.80;;;;;;498677;238;1042;-41
2022/06/15 06:38:29;;;;;;;;;;;21.70;55.70;;;;;;498474;238;1138;-41
2022/06/15 06:40:30;;;;;;;;;;;21.70;55.70;;;;;;498362;238;1266;-41
2022/06/15 06:42:31;;;;;;;;;;;21.80;55.70;;;;;;498325;238;1096;-41
2022/06/15 06:44:33;;;;;;;;;;;21.70;55.80;;;;;;498613;238;2092;-40
2022/06/15 06:46:34;;;;;;;;;;;21.80;55.70;;;;;;498782;238;2184;-41
2022/06/15 06:48:35;;;;;;;;;;;21.70;55.60;;;;;;498607;238;1165;-41
2022/06/15 06:50:37;;;;;;;;;;;21.80;55.70;;;;;;498026;238;1088;-41
2022/06/15 06:52:38;;;;;;;;;;;21.70;55.80;;;;;;498499;238;1138;-41
2022/06/15 06:54:39;;;;;;;;;;;21.70;55.70;;;;;;498592;238;1068;-41
2022/06/15 06:56:41;;;;;;;;;;;21.70;55.80;;;;;;498565;238;1084;-41
2022/06/15 06:58:42;;;;;;;;;;;21.70;55.80;;;;;;498635;238;1112;-41
2022/06/15 07:00:43;;;;;;;;;;;21.70;55.80;;;;;;498756;238;994;-41
2022/06/15 07:02:44;;;;;;;;;;;21.70;55.70;;;;;;498276;238;997;-41
2022/06/15 07:04:46;;;;;;;;;;;21.70;55.80;;;;;;498146;238;1186;-41
2022/06/15 07:06:47;;;;;;;;;;;21.70;55.80;;;;;;498230;238;2169;-41
2022/06/15 07:08:50;;;;;;;;;;;21.70;55.90;;;;;;498260;238;868;-41
2022/06/15 07:10:50;;;;;;;;;;;21.60;55.90;;;;;;498155;238;2111;-42
2022/06/15 07:12:51;;;;;;;;;;;21.60;55.80;;;;;;498161;238;925;-40
2022/06/15 07:14:52;;;;;;;;;;;21.60;55.90;;;;;;497879;238;1186;-42
2022/06/15 07:16:54;;;;;;;;;;;21.60;55.90;;;;;;497877;238;1353;-41
2022/06/15 07:18:55;;;;;;;;;;;21.70;55.80;;;;;;498151;238;1271;-41
2022/06/15 07:20:56;;;;;;;;;;;21.60;55.90;;;;;;498234;238;974;-42
2022/06/15 07:22:58;;;;;;;;;;;21.60;55.90;;;;;;498548;238;1126;-42
2022/06/15 07:24:59;;;;;;;;;;;21.70;55.80;;;;;;498602;238;1316;-41
2022/06/15 07:27:00;;;;;;;;;;;21.70;55.80;;;;;;498268;238;2173;-41
2022/06/15 07:29:02;;;;;;;;;;;21.60;55.90;;;;;;497992;238;1374;-41
2022/06/15 07:31:03;;;;;;;;;;;21.70;55.80;;;;;;498500;238;1082;-41
2022/06/15 07:33:04;;;;;;;;;;;21.60;55.80;;;;;;498478;238;1106;-41
2022/06/15 07:35:06;;;;;;;;;;;21.70;55.80;;;;;;498018;238;1219;-42
2022/06/15 07:37:07;;;;;;;;;;;21.70;55.80;;;;;;498016;238;1083;-41
2022/06/15 07:39:09;;;;;;;;;;;21.70;55.80;;;;;;498146;238;1120;-41
2022/06/15 07:41:10;;;;;;;;;;;21.70;55.70;;;;;;498627;238;1056;-41
2022/06/15 07:43:11;;;;;;;;;;;21.70;55.60;;;;;;498572;238;1136;-41
2022/06/15 07:45:13;;;;;;;;;;;21.70;55.70;;;;;;498084;238;1085;-41
2022/06/15 07:51:52;;;;;;;;;;;21.70;55.60;;;;;;497195;239;1029;-41
2022/06/15 07:53:54;;;;;;;;;;;21.80;55.60;;;;;;497622;239;1025;-41
2022/06/15 07:55:56;;;;;;;;;;;21.70;55.50;;;;;;497288;239;1106;-41
2022/06/15 07:57:56;;;;;;;;;;;21.70;55.60;;;;;;497700;239;2250;-41
2022/06/15 07:59:57;;;;;;;;;;;21.70;55.60;;;;;;497166;239;1068;-41
2022/06/15 08:01:59;;;;;;;;;;;21.70;55.50;;;;;;498179;239;1058;-41
2022/06/15 08:04:00;;;;;;;;;;;21.70;55.60;;;;;;498112;238;1184;-41
2022/06/15 08:06:01;;;;;;;;;;;21.80;55.50;;;;;;498583;238;2180;-40
2022/06/15 08:08:03;;;;;;;;;;;21.70;55.60;;;;;;498735;238;1091;-41
2022/06/15 08:10:04;;;;;;;;;;;21.70;55.60;;;;;;498655;238;1044;-42
2022/06/15 08:12:11;;;;;;;;;;;21.70;55.60;;;;;;497921;238;1049;-41
2022/06/15 08:14:13;;;;;;;;;;;21.70;55.70;;;;;;498407;238;1388;-40
2022/06/15 08:16:14;;;;;;;;;;;21.70;55.50;;;;;;498417;238;1263;-41
2022/06/15 08:18:15;;;;;;;;;;;21.70;55.60;;;;;;498270;238;1252;-42
2022/06/15 08:20:17;;;;;;;;;;;21.70;55.60;;;;;;498140;238;1055;-41
2022/06/15 08:22:19;;;;;;;;;;;21.70;55.70;;;;;;498045;238;1016;-42
2022/06/15 08:24:21;;;;;;;;;;;21.80;55.60;;;;;;498140;238;2272;-40
2022/06/15 08:26:22;;;;;;;;;;;21.80;55.50;;;;;;498051;238;2175;-41
2022/06/15 08:28:23;;;;;;;;;;;21.90;55.40;;;;;;498250;238;932;-40
2022/06/15 08:30:24;;;;;;;;;;;21.90;55.40;;;;;;498490;238;810;-41
2022/06/15 08:32:25;;;;;;;;;;;21.80;55.40;;;;;;498416;238;861;-41
2022/06/15 08:34:27;;;;;;;;;;;21.80;55.50;;;;;;498446;238;1128;-41
2022/06/15 08:36:28;;;;;;;;;;;21.80;55.50;;;;;;498331;238;1108;-42
2022/06/15 08:38:29;;;;;;;;;;;21.90;55.40;;;;;;497943;238;870;-41
2022/06/15 08:40:31;;;;;;;;;;;21.90;55.30;;;;;;498544;238;816;-41
2022/06/15 08:42:32;;;;;;;;;;;21.90;55.20;;;;;;498091;238;1060;-41
2022/06/15 08:44:34;;;;;;;;;;;21.90;55.30;;;;;;497824;238;1126;-41
2022/06/15 08:46:35;;;;;;;;;;;21.90;55.20;;;;;;498291;238;2192;-41
2022/06/15 08:48:36;;;;;;;;;;;21.90;55.20;;;;;;497939;238;1136;-41
2022/06/15 08:50:37;;;;;;;;;;;21.90;55.20;;;;;;497843;238;1177;-42
2022/06/15 08:52:39;;;;;;;;;;;21.90;55.20;;;;;;498178;238;1119;-41
2022/06/15 08:54:40;;;;;;;;;;;21.90;55.30;;;;;;498404;238;1244;-40
2022/06/15 08:56:41;;;;;;;;;;;21.90;55.20;;;;;;498559;238;1142;-41
2022/06/15 08:58:43;;;;;;;;;;;21.90;55.30;;;;;;498068;238;987;-41
2022/06/15 09:00:44;;;;;;;;;;;21.90;55.30;;;;;;498571;238;1090;-42
2022/06/15 09:02:45;;;;;;;;;;;21.90;55.30;;;;;;498464;238;1034;-41
2022/06/15 09:04:47;;;;;;;;;;;22.00;55.30;;;;;;498148;238;1189;-41
2022/06/15 09:06:48;;;;;;;;;;;22.00;55.20;;;;;;498437;238;2176;-40
2022/06/15 09:08:49;;;;;;;;;;;22.00;55.10;;;;;;498606;238;1076;-41
2022/06/15 09:10:51;;;;;;;;;;;22.00;55.10;;;;;;498071;238;823;-40
2022/06/15 09:12:58;;;;;;;;;;;22.00;55.00;;;;;;498160;238;1085;-41
2022/06/15 09:14:57;;;;;;;;;;;22.00;55.10;;;;;;497949;238;2366;-40
2022/06/15 09:16:58;;;;;;;;;;;22.00;55.10;;;;;;497797;238;1191;-41
2022/06/15 09:19:01;;;;;;;;;;;22.10;55.00;;;;;;498523;238;815;-41
2022/06/15 09:21:01;;;;;;;;;;;22.00;55.00;;;;;;497776;238;1367;-41
2022/06/15 09:23:03;;;;;;;;;;;22.00;55.00;;;;;;498389;238;1070;-40
2022/06/15 09:25:04;;;;;;;;;;;22.00;55.00;;;;;;498482;238;1036;-40
2022/06/15 09:27:05;;;;;;;;;;;22.10;55.00;;;;;;497833;238;2185;-41
2022/06/15 09:29:07;;;;;;;;;;;22.00;55.10;;;;;;498407;238;1055;-40
2022/06/15 09:31:08;;;;;;;;;;;22.00;55.00;;;;;;498272;238;1033;-41
2022/06/15 09:33:10;;;;;;;;;;;22.00;55.10;;;;;;497793;238;1072;-41
2022/06/15 09:35:11;;;;;;;;;;;22.00;55.00;;;;;;497847;238;1130;-41
2022/06/15 09:37:12;;;;;;;;;;;22.00;55.00;;;;;;497824;238;1179;-41
2022/06/15 09:39:14;;;;;;;;;;;22.00;55.10;;;;;;497865;238;1095;-41
2022/06/15 09:41:15;;;;;;;;;;;22.00;55.10;;;;;;497932;238;1101;-40
2022/06/15 09:43:16;;;;;;;;;;;22.00;55.20;;;;;;498496;238;1076;-41
2022/06/15 09:45:18;;;;;;;;;;;22.00;55.00;;;;;;498577;238;1097;-41
2022/06/15 09:47:19;;;;;;;;;;;22.00;55.00;;;;;;498578;238;2188;-41
2022/06/15 09:49:21;;;;;;;;;;;22.10;55.00;;;;;;498664;238;1074;-41
2022/06/15 09:51:22;;;;;;;;;;;22.10;54.90;;;;;;498097;238;1926;-42
2022/06/15 09:53:23;;;;;;;;;;;22.00;55.00;;;;;;498232;238;1090;-40
2022/06/15 09:55:24;;;;;;;;;;;22.00;55.00;;;;;;498240;238;1101;-41
2022/06/15 09:57:26;;;;;;;;;;;22.00;55.00;;;;;;498210;238;1100;-41
2022/06/15 09:59:32;;;;;;;;;;;22.10;55.00;;;;;;498694;238;1041;-41
2022/06/15 10:01:28;;;;;;;;;;;22.00;55.00;;;;;;497633;238;2203;-41
2022/06/15 10:03:30;;;;;;;;;;;22.10;55.00;;;;;;498404;238;1095;-41
2022/06/15 10:05:31;;;;;;;;;;;22.10;54.80;;;;;;498248;238;1123;-41
2022/06/15 10:07:32;;;;;;;;;;;22.10;54.90;;;;;;498234;238;2181;-41
2022/06/15 10:09:34;;;;;;;;;;;22.10;54.90;;;;;;498299;238;1062;-40
2022/06/15 10:11:35;;;;;;;;;;;22.10;54.80;;;;;;498152;238;1046;-40
2022/06/15 10:13:36;;;;;;;;;;;22.20;54.70;;;;;;498192;238;1050;-41
2022/06/15 10:15:38;;;;;;;;;;;22.10;54.80;;;;;;498180;238;1091;-41
2022/06/15 10:17:39;;;;;;;;;;;22.10;54.80;;;;;;498649;238;1241;-41
2022/06/15 10:19:40;;;;;;;;;;;22.10;54.80;;;;;;498669;238;1083;-41
2022/06/15 10:21:42;;;;;;;;;;;22.10;54.80;;;;;;497915;238;1161;-41
2022/06/15 10:23:43;;;;;;;;;;;22.10;54.80;;;;;;498394;238;853;-41
2022/06/15 10:25:44;;;;;;;;;;;22.00;54.80;;;;;;498554;238;1170;-41
2022/06/15 10:27:46;;;;;;;;;;;22.10;54.80;;;;;;498676;238;2176;-42
2022/06/15 10:29:47;;;;;;;;;;;22.10;54.70;;;;;;498743;238;1261;-41
2022/06/15 10:31:48;;;;;;;;;;;22.10;54.70;;;;;;498669;238;1172;-41
2022/06/15 10:33:50;;;;;;;;;;;22.10;54.70;;;;;;498212;238;974;-41
2022/06/15 10:35:51;;;;;;;;;;;22.10;54.70;;;;;;498561;238;1225;-41
2022/06/15 10:37:52;;;;;;;;;;;22.10;54.80;;;;;;498748;238;1048;-41
2022/06/15 10:39:54;;;;;;;;;;;22.10;54.80;;;;;;498231;238;1362;-41
2022/06/15 10:41:55;;;;;;;;;;;22.10;54.90;;;;;;496770;238;1533;-41
2022/06/15 10:43:58;;;;;;;;;;;22.10;54.80;;;;;;498616;238;1138;-41
2022/06/15 10:45:58;;;;;;;;;;;22.10;54.80;;;;;;498419;238;1799;-41
2022/06/15 10:48:00;;;;;;;;;;;22.10;54.80;;;;;;497847;238;2193;-40
2022/06/15 10:50:01;;;;;;;;;;;22.10;54.70;;;;;;498027;238;1091;-41
2022/06/15 10:52:02;;;;;;;;;;;22.10;54.70;;;;;;498016;238;1177;-41
2022/06/15 10:54:03;;;;;;;;;;;22.10;54.70;;;;;;497907;238;1193;-42
